Marsh, Pennsylvania
Current Conditions -  °F | °C
As of 4:15 AM on Friday 19 Dec 2014 (Local Time) from KMQS Reporting Station
Overcast Overcast  
Wind Chill: 24°   Ceiling: 2700
Heat Index: 34°   Visibility: 10mi
Dew Point: 28°   Wind: 14mph
Humidity: 81%   Direction: 300°WNW
Pressure: 30.03"   Gusts: 17mph
Location:  40.1578°N, 75.7894°W
Report Text: KMQS 190915Z AUTO 30012G15KT 10SM OVC027 01/M02 A3003 RMK AO2
Loading
Personal Weather Stations






























Interactive Weather Map New forecast layout! Learn more

10-Day Weather Forecast

Advertisements
Track Severe Weather on mobile